sensor_id;sensor_type;location;lat;lon;timestamp;pressure;altitude;pressure_sealevel;temperature;humidity
4398;BME280;2213;49.720;7.296;2024-01-07T00:00:16;97709.06;;;4.62;100.00
4398;BME280;2213;49.720;7.296;2024-01-07T00:02:46;97708.75;;;4.65;100.00
4398;BME280;2213;49.720;7.296;2024-01-07T00:05:15;97710.25;;;4.68;100.00
4398;BME280;2213;49.720;7.296;2024-01-07T00:07:43;97715.75;;;4.65;100.00
4398;BME280;2213;49.720;7.296;2024-01-07T00:10:12;97718.31;;;4.65;100.00
4398;BME280;2213;49.720;7.296;2024-01-07T00:12:40;97720.41;;;4.61;100.00
4398;BME280;2213;49.720;7.296;2024-01-07T00:15:10;97723.66;;;4.63;100.00
4398;BME280;2213;49.720;7.296;2024-01-07T00:17:38;97729.28;;;4.58;100.00
4398;BME280;2213;49.720;7.296;2024-01-07T00:20:09;97720.22;;;4.46;100.00
4398;BME280;2213;49.720;7.296;2024-01-07T00:22:38;97724.25;;;4.49;100.00
4398;BME280;2213;49.720;7.296;2024-01-07T00:25:07;97721.84;;;4.47;100.00
4398;BME280;2213;49.720;7.296;2024-01-07T00:27:36;97710.66;;;4.47;100.00
4398;BME280;2213;49.720;7.296;2024-01-07T00:30:06;97711.13;;;4.42;100.00
4398;BME280;2213;49.720;7.296;2024-01-07T00:32:35;97714.69;;;4.41;100.00
4398;BME280;2213;49.720;7.296;2024-01-07T00:35:04;97713.06;;;4.40;100.00
4398;BME280;2213;49.720;7.296;2024-01-07T00:37:34;97721.81;;;4.39;100.00
4398;BME280;2213;49.720;7.296;2024-01-07T00:40:04;97717.47;;;4.14;100.00
4398;BME280;2213;49.720;7.296;2024-01-07T00:42:33;97716.16;;;4.10;100.00
4398;BME280;2213;49.720;7.296;2024-01-07T00:45:01;97715.84;;;4.13;100.00
4398;BME280;2213;49.720;7.296;2024-01-07T00:47:30;97715.41;;;4.18;100.00
4398;BME280;2213;49.720;7.296;2024-01-07T00:49:58;97714.63;;;4.25;100.00
4398;BME280;2213;49.720;7.296;2024-01-07T00:52:27;97723.19;;;4.26;100.00
4398;BME280;2213;49.720;7.296;2024-01-07T00:54:56;97722.34;;;4.17;100.00
4398;BME280;2213;49.720;7.296;2024-01-07T00:57:25;97719.94;;;4.24;100.00
4398;BME280;2213;49.720;7.296;2024-01-07T00:59:54;97727.19;;;4.20;100.00
4398;BME280;2213;49.720;7.296;2024-01-07T01:02:22;97726.91;;;4.23;100.00
4398;BME280;2213;49.720;7.296;2024-01-07T01:04:51;97721.56;;;4.25;100.00
4398;BME280;2213;49.720;7.296;2024-01-07T01:07:19;97721.13;;;4.29;100.00
4398;BME280;2213;49.720;7.296;2024-01-07T01:09:48;97725.03;;;4.33;100.00
4398;BME280;2213;49.720;7.296;2024-01-07T01:12:18;97727.75;;;4.32;100.00
4398;BME280;2213;49.720;7.296;2024-01-07T01:14:46;97721.03;;;4.13;100.00
4398;BME280;2213;49.720;7.296;2024-01-07T01:17:15;97729.78;;;4.12;100.00
4398;BME280;2213;49.720;7.296;2024-01-07T01:19:43;97740.31;;;4.19;100.00
4398;BME280;2213;49.720;7.296;2024-01-07T01:22:12;97738.59;;;4.01;100.00
4398;BME280;2213;49.720;7.296;2024-01-07T01:24:40;97733.75;;;3.98;100.00
4398;BME280;2213;49.720;7.296;2024-01-07T01:27:10;97740.53;;;3.99;100.00
4398;BME280;2213;49.720;7.296;2024-01-07T01:29:40;97740.88;;;4.04;100.00
4398;BME280;2213;49.720;7.296;2024-01-07T01:32:09;97742.03;;;4.10;100.00
4398;BME280;2213;49.720;7.296;2024-01-07T01:34:37;97747.00;;;4.03;100.00
4398;BME280;2213;49.720;7.296;2024-01-07T01:37:08;97747.81;;;4.04;100.00
4398;BME280;2213;49.720;7.296;2024-01-07T01:39:40;97758.03;;;4.05;100.00
4398;BME280;2213;49.720;7.296;2024-01-07T01:42:08;97753.00;;;4.04;100.00
4398;BME280;2213;49.720;7.296;2024-01-07T01:44:37;97752.03;;;4.05;100.00
4398;BME280;2213;49.720;7.296;2024-01-07T01:47:07;97759.13;;;4.03;100.00
4398;BME280;2213;49.720;7.296;2024-01-07T01:49:36;97757.47;;;3.94;100.00
4398;BME280;2213;49.720;7.296;2024-01-07T01:52:05;97759.13;;;4.03;100.00
4398;BME280;2213;49.720;7.296;2024-01-07T01:54:34;97753.81;;;4.04;100.00
4398;BME280;2213;49.720;7.296;2024-01-07T01:57:04;97760.94;;;4.02;100.00
4398;BME280;2213;49.720;7.296;2024-01-07T01:59:34;97758.47;;;4.01;100.00
4398;BME280;2213;49.720;7.296;2024-01-07T02:02:03;97759.00;;;4.04;100.00
4398;BME280;2213;49.720;7.296;2024-01-07T02:04:34;97756.59;;;3.85;100.00
4398;BME280;2213;49.720;7.296;2024-01-07T02:07:03;97759.69;;;3.89;100.00
4398;BME280;2213;49.720;7.296;2024-01-07T02:09:31;97759.84;;;3.87;100.00
4398;BME280;2213;49.720;7.296;2024-01-07T02:12:04;97756.25;;;3.80;100.00
4398;BME280;2213;49.720;7.296;2024-01-07T02:14:33;97760.81;;;3.86;100.00
4398;BME280;2213;49.720;7.296;2024-01-07T02:17:01;97757.06;;;3.81;100.00
4398;BME280;2213;49.720;7.296;2024-01-07T02:19:30;97766.28;;;3.83;100.00
4398;BME280;2213;49.720;7.296;2024-01-07T02:22:00;97768.44;;;3.88;100.00
4398;BME280;2213;49.720;7.296;2024-01-07T02:24:29;97764.72;;;3.90;100.00
4398;BME280;2213;49.720;7.296;2024-01-07T02:26:59;97757.78;;;3.91;100.00
4398;BME280;2213;49.720;7.296;2024-01-07T02:29:29;97766.50;;;3.90;100.00
4398;BME280;2213;49.720;7.296;2024-01-07T02:31:57;97766.50;;;3.90;100.00
4398;BME280;2213;49.720;7.296;2024-01-07T02:34:26;97770.53;;;3.92;100.00
4398;BME280;2213;49.720;7.296;2024-01-07T02:36:54;97773.63;;;3.96;100.00
4398;BME280;2213;49.720;7.296;2024-01-07T02:39:23;97766.38;;;3.99;100.00
4398;BME280;2213;49.720;7.296;2024-01-07T02:41:53;97770.53;;;3.92;100.00
4398;BME280;2213;49.720;7.296;2024-01-07T02:44:21;97772.16;;;3.93;100.00
4398;BME280;2213;49.720;7.296;2024-01-07T02:46:50;97771.34;;;3.93;100.00
4398;BME280;2213;49.720;7.296;2024-01-07T02:49:18;97764.28;;;3.95;100.00
4398;BME280;2213;49.720;7.296;2024-01-07T02:51:47;97773.50;;;3.97;100.00
4398;BME280;2213;49.720;7.296;2024-01-07T02:54:17;97773.06;;;4.02;100.00
4398;BME280;2213;49.720;7.296;2024-01-07T02:56:45;97778.88;;;4.04;100.00
4398;BME280;2213;49.720;7.296;2024-01-07T02:59:15;97777.53;;;4.00;100.00
4398;BME280;2213;49.720;7.296;2024-01-07T03:01:44;97783.03;;;3.97;100.00
4398;BME280;2213;49.720;7.296;2024-01-07T03:04:16;97773.00;;;3.94;100.00
4398;BME280;2213;49.720;7.296;2024-01-07T03:06:44;97777.22;;;3.95;100.00
4398;BME280;2213;49.720;7.296;2024-01-07T03:09:13;97779.78;;;3.95;100.00
4398;BME280;2213;49.720;7.296;2024-01-07T03:11:41;97771.53;;;3.91;100.00
4398;BME280;2213;49.720;7.296;2024-01-07T03:14:10;97774.56;;;3.87;100.00
4398;BME280;2213;49.720;7.296;2024-01-07T03:16:40;97781.81;;;3.83;100.00
4398;BME280;2213;49.720;7.296;2024-01-07T03:19:09;97778.91;;;3.86;100.00
4398;BME280;2213;49.720;7.296;2024-01-07T03:21:37;97785.91;;;3.94;100.00
4398;BME280;2213;49.720;7.296;2024-01-07T03:24:06;97781.69;;;3.93;100.00
4398;BME280;2213;49.720;7.296;2024-01-07T03:26:35;97785.63;;;3.97;100.00
4398;BME280;2213;49.720;7.296;2024-01-07T03:29:04;97786.88;;;3.93;100.00
4398;BME280;2213;49.720;7.296;2024-01-07T03:31:32;97782.72;;;4.00;100.00
4398;BME280;2213;49.720;7.296;2024-01-07T03:34:02;97782.13;;;4.06;100.00
4398;BME280;2213;49.720;7.296;2024-01-07T03:36:31;97779.88;;;4.11;100.00
4398;BME280;2213;49.720;7.296;2024-01-07T03:38:59;97783.09;;;4.05;100.00
4398;BME280;2213;49.720;7.296;2024-01-07T03:41:28;97788.91;;;4.07;100.00
4398;BME280;2213;49.720;7.296;2024-01-07T03:43:56;97791.50;;;4.07;100.00
4398;BME280;2213;49.720;7.296;2024-01-07T03:46:25;97784.84;;;4.04;100.00
4398;BME280;2213;49.720;7.296;2024-01-07T03:48:53;97794.38;;;4.04;100.00
4398;BME280;2213;49.720;7.296;2024-01-07T03:51:23;97791.66;;;4.05;100.00
4398;BME280;2213;49.720;7.296;2024-01-07T03:53:53;97792.63;;;4.04;100.00
4398;BME280;2213;49.720;7.296;2024-01-07T03:56:21;97804.13;;;4.10;100.00
4398;BME280;2213;49.720;7.296;2024-01-07T03:58:50;97796.47;;;4.00;100.00
4398;BME280;2213;49.720;7.296;2024-01-07T04:01:18;97801.50;;;4.02;100.00
4398;BME280;2213;49.720;7.296;2024-01-07T04:03:47;97793.38;;;3.97;100.00
4398;BME280;2213;49.720;7.296;2024-01-07T04:06:15;97801.56;;;3.92;100.00
4398;BME280;2213;49.720;7.296;2024-01-07T04:08:46;97798.19;;;3.92;100.00
4398;BME280;2213;49.720;7.296;2024-01-07T04:11:14;97792.56;;;3.96;100.00
4398;BME280;2213;49.720;7.296;2024-01-07T04:13:43;97796.19;;;3.86;100.00
4398;BME280;2213;49.720;7.296;2024-01-07T04:16:17;97807.81;;;3.82;100.00
4398;BME280;2213;49.720;7.296;2024-01-07T04:18:47;97800.28;;;3.88;100.00
4398;BME280;2213;49.720;7.296;2024-01-07T04:21:20;97801.16;;;3.79;100.00
4398;BME280;2213;49.720;7.296;2024-01-07T04:23:50;97797.31;;;3.83;100.00
4398;BME280;2213;49.720;7.296;2024-01-07T04:26:19;97802.28;;;3.77;100.00
4398;BME280;2213;49.720;7.296;2024-01-07T04:28:47;97801.78;;;3.73;100.00
4398;BME280;2213;49.720;7.296;2024-01-07T04:31:16;97813.06;;;3.72;100.00
4398;BME280;2213;49.720;7.296;2024-01-07T04:33:44;97803.97;;;3.68;100.00
4398;BME280;2213;49.720;7.296;2024-01-07T04:36:13;97802.53;;;3.66;100.00
4398;BME280;2213;49.720;7.296;2024-01-07T04:38:42;97813.81;;;3.65;100.00
4398;BME280;2213;49.720;7.296;2024-01-07T04:41:11;97811.91;;;3.67;100.00
4398;BME280;2213;49.720;7.296;2024-01-07T04:43:42;97815.13;;;3.69;100.00
4398;BME280;2213;49.720;7.296;2024-01-07T04:46:11;97819.50;;;3.68;100.00
4398;BME280;2213;49.720;7.296;2024-01-07T04:48:39;97821.44;;;3.66;100.00
4398;BME280;2213;49.720;7.296;2024-01-07T04:51:08;97821.44;;;3.66;100.00
4398;BME280;2213;49.720;7.296;2024-01-07T04:53:36;97824.16;;;3.65;100.00
4398;BME280;2213;49.720;7.296;2024-01-07T04:56:06;97827.56;;;3.65;100.00
4398;BME280;2213;49.720;7.296;2024-01-07T04:58:36;97828.53;;;3.64;100.00
4398;BME280;2213;49.720;7.296;2024-01-07T05:01:04;97833.19;;;3.61;100.00
4398;BME280;2213;49.720;7.296;2024-01-07T05:03:33;97826.91;;;3.63;100.00
4398;BME280;2213;49.720;7.296;2024-01-07T05:06:03;97833.72;;;3.64;100.00
4398;BME280;2213;49.720;7.296;2024-01-07T05:08:31;97831.25;;;3.63;100.00
4398;BME280;2213;49.720;7.296;2024-01-07T05:11:00;97842.31;;;3.73;100.00
4398;BME280;2213;49.720;7.296;2024-01-07T05:13:28;97837.06;;;3.65;100.00
4398;BME280;2213;49.720;7.296;2024-01-07T05:15:58;97838.28;;;3.70;100.00
4398;BME280;2213;49.720;7.296;2024-01-07T05:18:27;97842.03;;;3.76;100.00
4398;BME280;2213;49.720;7.296;2024-01-07T05:20:56;97843.75;;;3.67;100.00
4398;BME280;2213;49.720;7.296;2024-01-07T05:23:24;97852.31;;;3.68;100.00
4398;BME280;2213;49.720;7.296;2024-01-07T05:25:53;97850.97;;;3.64;100.00
4398;BME280;2213;49.720;7.296;2024-01-07T05:28:21;97856.50;;;3.69;100.00
4398;BME280;2213;49.720;7.296;2024-01-07T05:30:50;97862.06;;;3.74;100.00
4398;BME280;2213;49.720;7.296;2024-01-07T05:33:20;97869.44;;;3.69;100.00
4398;BME280;2213;49.720;7.296;2024-01-07T05:35:48;97861.31;;;3.64;100.00
4398;BME280;2213;49.720;7.296;2024-01-07T05:38:17;97852.44;;;3.66;100.00
4398;BME280;2213;49.720;7.296;2024-01-07T05:40:45;97852.25;;;3.60;100.00
4398;BME280;2213;49.720;7.296;2024-01-07T05:43:13;97852.38;;;3.58;100.00
4398;BME280;2213;49.720;7.296;2024-01-07T05:45:42;97856.81;;;3.66;100.00
4398;BME280;2213;49.720;7.296;2024-01-07T05:48:11;97857.31;;;3.69;100.00
4398;BME280;2213;49.720;7.296;2024-01-07T05:50:40;97856.81;;;3.66;100.00
4398;BME280;2213;49.720;7.296;2024-01-07T05:53:09;97862.94;;;3.65;100.00
4398;BME280;2213;49.720;7.296;2024-01-07T05:55:37;97868.09;;;3.65;100.00
4398;BME280;2213;49.720;7.296;2024-01-07T05:58:06;97870.34;;;3.60;100.00
4398;BME280;2213;49.720;7.296;2024-01-07T06:00:35;97870.94;;;3.53;100.00
4398;BME280;2213;49.720;7.296;2024-01-07T06:03:03;97868.19;;;3.55;100.00
4398;BME280;2213;49.720;7.296;2024-01-07T06:05:32;97873.22;;;3.57;100.00
4398;BME280;2213;49.720;7.296;2024-01-07T06:08:02;97875.19;;;3.63;100.00
4398;BME280;2213;49.720;7.296;2024-01-07T06:10:31;97878.91;;;3.60;100.00
4398;BME280;2213;49.720;7.296;2024-01-07T06:12:59;97880.66;;;3.60;100.00
4398;BME280;2213;49.720;7.296;2024-01-07T06:15:28;97879.41;;;3.64;100.00
4398;BME280;2213;49.720;7.296;2024-01-07T06:17:56;97883.34;;;3.68;100.00
4398;BME280;2213;49.720;7.296;2024-01-07T06:20:25;97885.94;;;3.68;100.00
4398;BME280;2213;49.720;7.296;2024-01-07T06:22:53;97887.22;;;3.72;100.00
4398;BME280;2213;49.720;7.296;2024-01-07T06:25:23;97886.06;;;3.66;100.00
4398;BME280;2213;49.720;7.296;2024-01-07T06:27:53;97883.91;;;3.62;100.00
4398;BME280;2213;49.720;7.296;2024-01-07T06:30:22;97891.38;;;3.65;100.00
4398;BME280;2213;49.720;7.296;2024-01-07T06:32:52;97893.94;;;3.65;100.00
4398;BME280;2213;49.720;7.296;2024-01-07T06:35:21;97897.94;;;3.59;100.00
4398;BME280;2213;49.720;7.296;2024-01-07T06:37:49;97902.00;;;3.62;100.00
4398;BME280;2213;49.720;7.296;2024-01-07T06:40:18;97896.69;;;3.63;100.00
4398;BME280;2213;49.720;7.296;2024-01-07T06:42:48;97906.09;;;3.64;100.00
4398;BME280;2213;49.720;7.296;2024-01-07T06:45:17;97908.59;;;3.56;100.00
4398;BME280;2213;49.720;7.296;2024-01-07T06:47:46;97914.56;;;3.57;100.00
4398;BME280;2213;49.720;7.296;2024-01-07T06:50:14;97914.13;;;3.61;100.00
4398;BME280;2213;49.720;7.296;2024-01-07T06:52:43;97914.78;;;3.63;100.00
4398;BME280;2213;49.720;7.296;2024-01-07T06:55:12;97913.47;;;3.59;100.00
4398;BME280;2213;49.720;7.296;2024-01-07T06:57:40;97922.03;;;3.60;100.00
4398;BME280;2213;49.720;7.296;2024-01-07T07:00:12;97921.66;;;3.54;100.00
4398;BME280;2213;49.720;7.296;2024-01-07T07:02:41;97924.00;;;3.48;100.00
4398;BME280;2213;49.720;7.296;2024-01-07T07:05:09;97927.28;;;3.50;100.00
4398;BME280;2213;49.720;7.296;2024-01-07T07:07:38;97917.88;;;3.49;100.00
4398;BME280;2213;49.720;7.296;2024-01-07T07:10:08;97926.88;;;3.45;100.00
4398;BME280;2213;49.720;7.296;2024-01-07T07:12:36;97938.03;;;3.45;100.00
4398;BME280;2213;49.720;7.296;2024-01-07T07:15:06;97930.88;;;3.39;100.00
4398;BME280;2213;49.720;7.296;2024-01-07T07:17:38;97934.50;;;3.46;100.00
4398;BME280;2213;49.720;7.296;2024-01-07T07:20:08;97935.97;;;3.49;100.00
4398;BME280;2213;49.720;7.296;2024-01-07T07:22:37;97932.28;;;3.51;100.00
4398;BME280;2213;49.720;7.296;2024-01-07T07:25:07;97939.38;;;3.49;100.00
4398;BME280;2213;49.720;7.296;2024-01-07T07:27:36;97943.78;;;3.39;100.00
4398;BME280;2213;49.720;7.296;2024-01-07T07:30:06;97946.50;;;3.38;100.00
4398;BME280;2213;49.720;7.296;2024-01-07T07:32:35;97951.91;;;3.44;100.00
4398;BME280;2213;49.720;7.296;2024-01-07T07:35:06;97953.53;;;3.45;100.00
4398;BME280;2213;49.720;7.296;2024-01-07T07:37:35;97958.59;;;3.37;100.00
4398;BME280;2213;49.720;7.296;2024-01-07T07:40:06;97971.41;;;3.39;100.00
4398;BME280;2213;49.720;7.296;2024-01-07T07:42:35;97969.75;;;3.38;100.00
4398;BME280;2213;49.720;7.296;2024-01-07T07:45:05;97965.13;;;3.41;100.00
4398;BME280;2213;49.720;7.296;2024-01-07T07:47:34;97967.81;;;3.49;100.00
4398;BME280;2213;49.720;7.296;2024-01-07T07:50:05;97973.63;;;3.51;100.00
4398;BME280;2213;49.720;7.296;2024-01-07T07:52:34;97969.34;;;3.42;100.00
4398;BME280;2213;49.720;7.296;2024-01-07T07:55:03;97981.84;;;3.47;100.00
4398;BME280;2213;49.720;7.296;2024-01-07T07:57:34;97982.63;;;3.47;100.00
4398;BME280;2213;49.720;7.296;2024-01-07T08:00:03;97986.03;;;3.48;100.00
4398;BME280;2213;49.720;7.296;2024-01-07T08:02:32;97989.13;;;3.51;100.00
4398;BME280;2213;49.720;7.296;2024-01-07T08:05:01;97987.53;;;3.50;100.00
4398;BME280;2213;49.720;7.296;2024-01-07T08:07:32;97995.53;;;3.47;100.00
4398;BME280;2213;49.720;7.296;2024-01-07T08:10:04;98005.75;;;3.49;100.00
4398;BME280;2213;49.720;7.296;2024-01-07T08:12:34;97996.53;;;3.46;100.00
4398;BME280;2213;49.720;7.296;2024-01-07T08:15:08;98004.94;;;3.48;100.00
4398;BME280;2213;49.720;7.296;2024-01-07T08:17:36;98009.09;;;3.59;100.00
4398;BME280;2213;49.720;7.296;2024-01-07T08:20:07;98010.44;;;3.63;100.00
4398;BME280;2213;49.720;7.296;2024-01-07T08:22:37;98016.81;;;3.69;100.00
4398;BME280;2213;49.720;7.296;2024-01-07T08:25:07;98019.97;;;3.63;100.00
4398;BME280;2213;49.720;7.296;2024-01-07T08:27:41;98021.78;;;3.52;100.00
4398;BME280;2213;49.720;7.296;2024-01-07T08:30:11;98020.16;;;3.51;100.00
4398;BME280;2213;49.720;7.296;2024-01-07T08:32:41;98031.56;;;3.59;100.00
4398;BME280;2213;49.720;7.296;2024-01-07T08:35:10;98035.47;;;3.63;100.00
4398;BME280;2213;49.720;7.296;2024-01-07T08:37:42;98034.28;;;3.57;100.00
4398;BME280;2213;49.720;7.296;2024-01-07T08:40:12;98039.00;;;3.62;100.00
4398;BME280;2213;49.720;7.296;2024-01-07T08:42:41;98040.53;;;3.54;100.00
4398;BME280;2213;49.720;7.296;2024-01-07T08:45:10;98036.72;;;3.59;100.00
4398;BME280;2213;49.720;7.296;2024-01-07T08:47:38;98035.38;;;3.54;100.00
4398;BME280;2213;49.720;7.296;2024-01-07T08:50:11;98040.84;;;3.51;100.00
4398;BME280;2213;49.720;7.296;2024-01-07T08:52:42;98042.19;;;3.55;100.00
4398;BME280;2213;49.720;7.296;2024-01-07T08:55:10;98050.03;;;3.64;100.00
4398;BME280;2213;49.720;7.296;2024-01-07T08:57:40;98054.22;;;3.65;100.00
4398;BME280;2213;49.720;7.296;2024-01-07T09:00:10;98048.94;;;3.66;100.00
4398;BME280;2213;49.720;7.296;2024-01-07T09:02:39;98054.53;;;3.62;100.00
4398;BME280;2213;49.720;7.296;2024-01-07T09:05:10;98066.38;;;3.54;100.00
4398;BME280;2213;49.720;7.296;2024-01-07T09:07:42;98055.22;;;3.54;100.00
4398;BME280;2213;49.720;7.296;2024-01-07T09:10:11;98060.69;;;3.61;100.00
4398;BME280;2213;49.720;7.296;2024-01-07T09:12:41;98071.44;;;3.56;100.00
4398;BME280;2213;49.720;7.296;2024-01-07T09:15:09;98073.59;;;3.61;100.00
4398;BME280;2213;49.720;7.296;2024-01-07T09:17:38;98073.69;;;3.69;100.00
4398;BME280;2213;49.720;7.296;2024-01-07T09:20:09;98070.69;;;3.73;100.00
4398;BME280;2213;49.720;7.296;2024-01-07T09:22:39;98079.84;;;3.68;100.00
4398;BME280;2213;49.720;7.296;2024-01-07T09:25:09;98089.78;;;3.63;100.00
4398;BME280;2213;49.720;7.296;2024-01-07T09:27:38;98095.59;;;3.65;100.00
4398;BME280;2213;49.720;7.296;2024-01-07T09:30:08;98105.28;;;3.63;100.00
4398;BME280;2213;49.720;7.296;2024-01-07T09:32:38;98105.28;;;3.63;100.00
4398;BME280;2213;49.720;7.296;2024-01-07T09:35:07;98105.00;;;3.66;100.00
4398;BME280;2213;49.720;7.296;2024-01-07T09:37:36;98102.97;;;3.60;100.00
4398;BME280;2213;49.720;7.296;2024-01-07T09:40:06;98105.31;;;3.53;100.00
4398;BME280;2213;49.720;7.296;2024-01-07T09:42:39;98101.75;;;3.54;100.00
4398;BME280;2213;49.720;7.296;2024-01-07T09:45:12;98099.72;;;3.58;100.00
4398;BME280;2213;49.720;7.296;2024-01-07T09:47:41;98100.97;;;3.53;100.00
4398;BME280;2213;49.720;7.296;2024-01-07T09:50:11;98107.22;;;3.61;100.00
4398;BME280;2213;49.720;7.296;2024-01-07T09:52:43;98103.81;;;3.60;100.00
4398;BME280;2213;49.720;7.296;2024-01-07T09:55:19;98104.72;;;3.69;100.00
4398;BME280;2213;49.720;7.296;2024-01-07T09:57:51;98103.19;;;3.76;100.00
4398;BME280;2213;49.720;7.296;2024-01-07T10:00:20;98107.13;;;3.80;100.00
4398;BME280;2213;49.720;7.296;2024-01-07T10:02:49;98113.22;;;3.79;100.00
4398;BME280;2213;49.720;7.296;2024-01-07T10:05:17;98104.28;;;3.73;100.00
4398;BME280;2213;49.720;7.296;2024-01-07T10:07:46;98110.94;;;3.76;100.00
4398;BME280;2213;49.720;7.296;2024-01-07T10:10:15;98116.56;;;3.71;100.00
4398;BME280;2213;49.720;7.296;2024-01-07T10:12:45;98115.34;;;3.66;100.00
4398;BME280;2213;49.720;7.296;2024-01-07T10:15:15;98106.63;;;3.67;100.00
4398;BME280;2213;49.720;7.296;2024-01-07T10:17:45;98111.91;;;3.75;100.00
4398;BME280;2213;49.720;7.296;2024-01-07T10:20:16;98119.16;;;3.62;100.00
4398;BME280;2213;49.720;7.296;2024-01-07T10:22:49;98117.63;;;3.69;100.00
4398;BME280;2213;49.720;7.296;2024-01-07T10:25:19;98119.94;;;3.72;100.00
4398;BME280;2213;49.720;7.296;2024-01-07T10:27:48;98123.56;;;3.79;100.00
4398;BME280;2213;49.720;7.296;2024-01-07T10:30:18;98122.50;;;3.81;100.00
4398;BME280;2213;49.720;7.296;2024-01-07T10:32:49;98118.94;;;3.82;100.00
4398;BME280;2213;49.720;7.296;2024-01-07T10:35:21;98127.38;;;3.84;100.00
4398;BME280;2213;49.720;7.296;2024-01-07T10:37:50;98126.16;;;3.79;100.00
4398;BME280;2213;49.720;7.296;2024-01-07T10:40:19;98126.84;;;3.81;100.00
4398;BME280;2213;49.720;7.296;2024-01-07T10:42:49;98116.09;;;3.76;100.00
4398;BME280;2213;49.720;7.296;2024-01-07T10:45:20;98120.91;;;3.71;100.00
4398;BME280;2213;49.720;7.296;2024-01-07T10:47:51;98121.28;;;3.76;100.00
4398;BME280;2213;49.720;7.296;2024-01-07T10:50:22;98122.63;;;3.80;100.00
4398;BME280;2213;49.720;7.296;2024-01-07T10:53:03;98125.22;;;3.80;100.00
4398;BME280;2213;49.720;7.296;2024-01-07T10:55:34;98125.63;;;3.85;100.00
4398;BME280;2213;49.720;7.296;2024-01-07T10:58:05;98127.50;;;3.83;100.00
4398;BME280;2213;49.720;7.296;2024-01-07T11:00:35;98131.88;;;3.82;100.00
4398;BME280;2213;49.720;7.296;2024-01-07T11:03:11;98132.97;;;3.80;100.00
4398;BME280;2213;49.720;7.296;2024-01-07T11:05:49;98139.50;;;3.84;100.00
4398;BME280;2213;49.720;7.296;2024-01-07T11:08:25;98129.69;;;3.87;100.00
4398;BME280;2213;49.720;7.296;2024-01-07T11:11:03;98134.97;;;3.86;100.00
4398;BME280;2213;49.720;7.296;2024-01-07T11:13:35;98138.91;;;3.90;100.00
4398;BME280;2213;49.720;7.296;2024-01-07T11:16:07;98135.38;;;3.91;100.00
4398;BME280;2213;49.720;7.296;2024-01-07T11:18:40;98135.50;;;3.89;100.00
4398;BME280;2213;49.720;7.296;2024-01-07T11:21:08;98132.09;;;3.89;100.00
4398;BME280;2213;49.720;7.296;2024-01-07T11:23:43;98137.44;;;3.87;100.00
4398;BME280;2213;49.720;7.296;2024-01-07T11:26:13;98130.78;;;3.85;100.00
4398;BME280;2213;49.720;7.296;2024-01-07T11:28:47;98133.09;;;3.88;100.00
4398;BME280;2213;49.720;7.296;2024-01-07T11:31:19;98133.47;;;3.93;100.00
4398;BME280;2213;49.720;7.296;2024-01-07T11:33:49;98141.91;;;3.95;100.00
4398;BME280;2213;49.720;7.296;2024-01-07T11:36:19;98130.75;;;3.94;100.00
4398;BME280;2213;49.720;7.296;2024-01-07T11:38:48;98142.19;;;3.92;100.00
4398;BME280;2213;49.720;7.296;2024-01-07T11:41:23;98137.28;;;3.89;100.00
4398;BME280;2213;49.720;7.296;2024-01-07T11:43:54;98134.16;;;3.95;100.00
4398;BME280;2213;49.720;7.296;2024-01-07T11:46:24;98141.63;;;3.98;100.00
4398;BME280;2213;49.720;7.296;2024-01-07T11:48:55;98143.38;;;3.97;100.00
4398;BME280;2213;49.720;7.296;2024-01-07T11:51:27;98140.25;;;3.94;100.00
4398;BME280;2213;49.720;7.296;2024-01-07T11:53:57;98146.25;;;3.94;100.00
4398;BME280;2213;49.720;7.296;2024-01-07T11:56:27;98151.56;;;3.93;100.00
4398;BME280;2213;49.720;7.296;2024-01-07T11:58:56;98140.78;;;3.97;100.00
4398;BME280;2213;49.720;7.296;2024-01-07T12:01:26;98148.69;;;3.96;100.00
4398;BME280;2213;49.720;7.296;2024-01-07T12:03:55;98150.22;;;3.89;100.00
4398;BME280;2213;49.720;7.296;2024-01-07T12:06:23;98151.72;;;3.91;100.00
4398;BME280;2213;49.720;7.296;2024-01-07T12:08:52;98157.72;;;3.92;100.00
4398;BME280;2213;49.720;7.296;2024-01-07T12:11:21;98162.88;;;3.92;100.00
4398;BME280;2213;49.720;7.296;2024-01-07T12:13:51;98160.31;;;3.92;100.00
4398;BME280;2213;49.720;7.296;2024-01-07T12:16:19;98161.53;;;3.88;100.00
4398;BME280;2213;49.720;7.296;2024-01-07T12:18:50;98163.16;;;3.89;100.00
4398;BME280;2213;49.720;7.296;2024-01-07T12:21:20;98167.13;;;3.83;100.00
4398;BME280;2213;49.720;7.296;2024-01-07T12:23:50;98182.84;;;3.63;100.00
4398;BME280;2213;49.720;7.296;2024-01-07T12:26:19;98182.81;;;3.72;100.00
4398;BME280;2213;49.720;7.296;2024-01-07T12:28:53;98172.06;;;3.77;100.00
4398;BME280;2213;49.720;7.296;2024-01-07T12:31:22;98180.13;;;3.64;100.00
4398;BME280;2213;49.720;7.296;2024-01-07T12:33:53;98180.09;;;3.74;100.00
4398;BME280;2213;49.720;7.296;2024-01-07T12:36:22;98176.28;;;3.78;100.00
4398;BME280;2213;49.720;7.296;2024-01-07T12:38:52;98183.59;;;3.82;100.00
4398;BME280;2213;49.720;7.296;2024-01-07T12:41:22;98177.50;;;3.74;100.00
4398;BME280;2213;49.720;7.296;2024-01-07T12:43:51;98174.63;;;3.77;100.00
4398;BME280;2213;49.720;7.296;2024-01-07T12:46:19;98178.84;;;3.78;100.00
4398;BME280;2213;49.720;7.296;2024-01-07T12:48:48;98174.22;;;3.81;100.00
4398;BME280;2213;49.720;7.296;2024-01-07T12:51:18;98176.03;;;3.71;100.00
4398;BME280;2213;49.720;7.296;2024-01-07T12:53:50;98177.22;;;3.77;100.00
4398;BME280;2213;49.720;7.296;2024-01-07T12:56:19;98177.09;;;3.78;100.00
4398;BME280;2213;49.720;7.296;2024-01-07T12:58:47;98179.81;;;3.77;100.00
4398;BME280;2213;49.720;7.296;2024-01-07T13:01:16;98184.44;;;3.73;100.00
4398;BME280;2213;49.720;7.296;2024-01-07T13:03:45;98182.69;;;3.74;100.00
4398;BME280;2213;49.720;7.296;2024-01-07T13:06:13;98173.97;;;3.75;100.00
4398;BME280;2213;49.720;7.296;2024-01-07T13:08:43;98186.63;;;3.78;100.00
4398;BME280;2213;49.720;7.296;2024-01-07T13:11:12;98198.28;;;3.82;100.00
4398;BME280;2213;49.720;7.296;2024-01-07T13:13:43;98202.97;;;3.69;100.00
4398;BME280;2213;49.720;7.296;2024-01-07T13:16:12;98199.97;;;3.73;100.00
4398;BME280;2213;49.720;7.296;2024-01-07T13:18:41;98208.38;;;3.75;100.00
4398;BME280;2213;49.720;7.296;2024-01-07T13:21:09;98219.28;;;3.69;100.00
4398;BME280;2213;49.720;7.296;2024-01-07T13:23:38;98213.31;;;3.78;100.00
4398;BME280;2213;49.720;7.296;2024-01-07T13:26:11;98218.59;;;3.77;100.00
4398;BME280;2213;49.720;7.296;2024-01-07T13:28:39;98221.72;;;3.80;100.00
4398;BME280;2213;49.720;7.296;2024-01-07T13:31:08;98220.63;;;3.83;100.00
4398;BME280;2213;49.720;7.296;2024-01-07T13:33:39;98224.69;;;3.85;100.00